createdAt,value
2019-01-22T00:01:02.327Z,50.87
2019-01-22T00:02:11.317Z,50.96
2019-01-22T00:03:20.190Z,51.06
2019-01-22T00:04:29.310Z,51.16
2019-01-22T00:05:38.251Z,51.16
2019-01-22T00:06:47.134Z,50.96
2019-01-22T00:07:56.312Z,50.87
2019-01-22T00:09:05.726Z,50.78
2019-01-22T00:10:14.879Z,50.87
2019-01-22T00:11:24.026Z,50.78
2019-01-22T00:12:33.162Z,50.78
2019-01-22T00:13:42.409Z,51.25
2019-01-22T00:14:51.292Z,51.16
2019-01-22T00:16:00.692Z,51.16
2019-01-22T00:17:09.840Z,50.39
2019-01-22T00:18:19.007Z,50.1
2019-01-22T00:19:28.242Z,50.68
2019-01-22T00:20:37.402Z,50.58
2019-01-22T00:21:46.807Z,50.39
2019-01-22T00:22:55.719Z,50.39
2019-01-22T00:24:09.771Z,49.91
2019-01-22T00:25:19.634Z,50.2
2019-01-22T00:26:29.731Z,50.29
2019-01-22T00:27:39.063Z,50.2
2019-01-22T00:28:49.155Z,49.82
2019-01-22T00:29:59.625Z,49.72
2019-01-22T00:31:09.856Z,50.1
2019-01-22T00:32:19.451Z,49.91
2019-01-22T00:33:29.364Z,49.62
2019-01-22T00:34:38.691Z,49.52
2019-01-22T00:35:47.817Z,49.72
2019-01-22T00:36:56.803Z,49.82
2019-01-22T00:38:05.660Z,49.72
2019-01-22T00:39:14.530Z,49.91
2019-01-22T00:40:23.951Z,49.62
2019-01-22T00:41:32.812Z,49.82
2019-01-22T00:42:42.001Z,49.72
2019-01-22T00:43:50.922Z,49.15
2019-01-22T00:45:00.039Z,49.43
2019-01-22T00:46:09.480Z,49.31
2019-01-22T00:47:18.601Z,49.12
2019-01-22T00:48:27.523Z,49.05
2019-01-22T00:49:36.390Z,49.02
2019-01-22T00:50:45.536Z,48.83
2019-01-22T00:51:54.378Z,48.74
2019-01-22T00:53:09.743Z,48.95
2019-01-22T00:54:18.859Z,49.05
2019-01-22T00:55:27.709Z,48.47
2019-01-22T00:56:36.598Z,48.57
2019-01-22T00:57:45.725Z,48.47
2019-01-22T00:58:54.610Z,48.66
2019-01-22T01:00:03.582Z,48.44
2019-01-22T01:01:12.725Z,48.28
2019-01-22T01:02:21.576Z,48.07
2019-01-22T01:03:30.676Z,48.38
2019-01-22T01:04:39.789Z,48.07
2019-01-22T01:05:49.046Z,47.99
2019-01-22T01:06:58.488Z,48.25
2019-01-22T01:08:07.629Z,48.25
2019-01-22T01:09:16.792Z,48.44
2019-01-22T01:10:25.924Z,48.38
2019-01-22T01:11:34.894Z,48.16
2019-01-22T01:12:43.739Z,48.18
2019-01-22T01:13:52.609Z,48.28
2019-01-22T01:15:01.982Z,48.25
2019-01-22T01:16:10.838Z,48.07
2019-01-22T01:17:20.011Z,48.07
2019-01-22T01:18:28.877Z,48.16
2019-01-22T01:19:38.003Z,48.07
2019-01-22T01:20:46.859Z,47.77
2019-01-22T01:21:56.481Z,47.39
2019-01-22T01:23:05.679Z,47.39
2019-01-22T01:24:21.508Z,47.51
2019-01-22T01:25:30.939Z,47.3
2019-01-22T01:26:40.057Z,47.1
2019-01-22T01:27:49.443Z,47.39
2019-01-22T01:28:58.567Z,47.3
2019-01-22T01:30:07.405Z,47.49
2019-01-22T01:31:16.251Z,47.1
2019-01-22T01:32:25.117Z,47.01
2019-01-22T01:33:33.990Z,46.72
2019-01-22T01:34:43.149Z,46.91
2019-01-22T01:35:52.003Z,46.53
2019-01-22T01:37:01.420Z,46.72
2019-01-22T01:38:10.268Z,46.72
2019-01-22T01:39:19.150Z,46.94
2019-01-22T01:40:28.342Z,46.53
2019-01-22T01:41:37.738Z,46.62
2019-01-22T01:42:47.152Z,46.62
2019-01-22T01:43:56.385Z,46.62
2019-01-22T01:45:05.700Z,46.72
2019-01-22T01:46:15.192Z,46.84
2019-01-22T01:47:24.929Z,46.91
2019-01-22T01:48:34.384Z,46.81
2019-01-22T01:49:44.192Z,46.94
2019-01-22T01:50:53.957Z,46.62
2019-01-22T01:52:04.333Z,46.24
2019-01-22T01:53:14.063Z,46.05
2019-01-22T01:54:28.752Z,46.36
2019-01-22T01:55:37.869Z,46.34
2019-01-22T01:56:47.309Z,46.05
2019-01-22T01:57:56.187Z,45.88
2019-01-22T01:59:05.572Z,46.17
2019-01-22T02:00:14.461Z,46.14
2019-01-22T02:01:23.342Z,45.67
2019-01-22T02:02:32.469Z,45.95
2019-01-22T02:03:42.048Z,45.86
2019-01-22T02:04:50.925Z,45.86
2019-01-22T02:06:00.069Z,45.78
2019-01-22T02:07:08.947Z,45.59
2019-01-22T02:08:32.653Z,45.76
2019-01-22T02:09:42.138Z,45.59
2019-01-22T02:10:51.032Z,45.57
2019-01-22T02:12:00.167Z,45.57
2019-01-22T02:13:09.047Z,45.57
2019-01-22T02:14:18.564Z,45.67
2019-01-22T02:15:27.745Z,45.37
2019-01-22T02:16:36.875Z,45.67
2019-01-22T02:17:46.012Z,45.57
2019-01-22T02:18:55.150Z,45.88
2019-01-22T02:20:04.874Z,45.68
2019-01-22T02:21:13.989Z,45.76
2019-01-22T02:22:22.827Z,45.68
2019-01-22T02:23:33.029Z,45.76
2019-01-22T02:24:41.906Z,45.57
2019-01-22T02:25:51.089Z,45.47
2019-01-22T02:27:00.492Z,45.09
2019-01-22T02:28:09.371Z,45.37
2019-01-22T02:29:18.501Z,45.86
2019-01-22T02:30:27.384Z,45.95
2019-01-22T02:31:36.868Z,45.47
2019-01-22T02:32:45.742Z,45
2019-01-22T02:33:54.615Z,45.47
2019-01-22T02:35:03.766Z,45
2019-01-22T02:36:12.927Z,45.18
2019-01-22T02:37:21.800Z,45.37
2019-01-22T02:38:30.936Z,45.28
2019-01-22T02:39:40.354Z,45.18
2019-01-22T02:40:49.743Z,45.18
2019-01-22T02:41:58.610Z,45.09
2019-01-22T02:43:07.644Z,45.09
2019-01-22T02:44:16.850Z,45.09
2019-01-22T02:45:26.262Z,45.18
2019-01-22T02:46:35.703Z,45.09
2019-01-22T02:47:45.349Z,45.09
2019-01-22T02:48:54.953Z,45.18
2019-01-22T02:50:04.853Z,45
2019-01-22T02:51:14.637Z,45.18
2019-01-22T02:52:24.071Z,44.8
2019-01-22T02:53:40.839Z,45.18
2019-01-22T02:54:49.703Z,44.7
2019-01-22T02:55:58.849Z,45
2019-01-22T02:57:07.982Z,44.7
2019-01-22T02:58:16.864Z,44.9
2019-01-22T02:59:26.025Z,45
2019-01-22T03:00:34.964Z,44.8
2019-01-22T03:01:44.125Z,45
2019-01-22T03:02:53.244Z,45
2019-01-22T03:04:02.363Z,44.8
2019-01-22T03:05:11.237Z,44.9
2019-01-22T03:06:20.201Z,45
2019-01-22T03:07:29.100Z,45.09
2019-01-22T03:08:38.528Z,44.7
2019-01-22T03:09:47.688Z,44.8
2019-01-22T03:10:56.850Z,44.9
2019-01-22T03:12:05.756Z,45.09
2019-01-22T03:13:14.915Z,44.7
2019-01-22T03:14:24.658Z,45.18
2019-01-22T03:15:33.874Z,45.18
2019-01-22T03:16:43.011Z,44.7
2019-01-22T03:17:52.130Z,45.09
2019-01-22T03:19:01.289Z,45.18
2019-01-22T03:20:10.427Z,44.8
2019-01-22T03:21:19.557Z,44.9
2019-01-22T03:22:28.427Z,45.18
2019-01-22T03:23:37.404Z,44.9
2019-01-22T03:24:53.260Z,44.9
2019-01-22T03:26:02.701Z,45.18
2019-01-22T03:27:12.081Z,44.8
2019-01-22T03:28:20.990Z,44.8
2019-01-22T03:29:29.974Z,44.7
2019-01-22T03:30:38.864Z,45.18
2019-01-22T03:31:48.023Z,45.18
2019-01-22T03:32:57.769Z,45.18
2019-01-22T03:34:06.916Z,45
2019-01-22T03:35:16.080Z,45.28
2019-01-22T03:36:25.174Z,44.8
2019-01-22T03:37:34.337Z,45
2019-01-22T03:38:43.195Z,45.18
2019-01-22T03:39:52.034Z,45
2019-01-22T03:41:01.175Z,45.09
2019-01-22T03:42:10.032Z,45
2019-01-22T03:43:19.198Z,45.18
2019-01-22T03:44:28.695Z,45.18
2019-01-22T03:45:38.825Z,45.18
2019-01-22T03:46:48.462Z,45.18
2019-01-22T03:47:58.084Z,45
2019-01-22T03:49:07.901Z,45.16
2019-01-22T03:50:17.537Z,45.18
2019-01-22T03:51:27.023Z,45.18
2019-01-22T03:52:35.992Z,45.18
2019-01-22T03:53:45.116Z,44.7
2019-01-22T03:55:00.780Z,44.7
2019-01-22T03:56:09.884Z,45
2019-01-22T03:57:18.755Z,44.9
2019-01-22T03:58:27.855Z,44.8
2019-01-22T03:59:36.704Z,44.78
2019-01-22T04:00:45.797Z,44.8
2019-01-22T04:01:54.958Z,45.16
2019-01-22T04:03:03.812Z,45.16
2019-01-22T04:04:13.296Z,44.87
2019-01-22T04:05:22.431Z,44.78
2019-01-22T04:06:32.063Z,44.87
2019-01-22T04:07:40.904Z,44.97
2019-01-22T04:08:50.023Z,44.97
2019-01-22T04:09:59.507Z,44.97
2019-01-22T04:11:08.668Z,44.78
2019-01-22T04:12:18.066Z,44.78
2019-01-22T04:13:27.178Z,44.78
2019-01-22T04:14:36.292Z,44.78
2019-01-22T04:15:45.461Z,44.87
2019-01-22T04:16:54.588Z,44.87
2019-01-22T04:18:03.717Z,44.78
2019-01-22T04:19:12.553Z,44.78
2019-01-22T04:20:21.698Z,44.87
2019-01-22T04:21:30.820Z,44.87
2019-01-22T04:22:39.659Z,44.97
2019-01-22T04:23:48.755Z,44.97
2019-01-22T04:25:04.078Z,44.97
2019-01-22T04:26:13.270Z,45.07
2019-01-22T04:27:22.723Z,44.97
2019-01-22T04:28:32.452Z,44.97
2019-01-22T04:29:41.625Z,45.07
2019-01-22T04:30:51.010Z,44.97
2019-01-22T04:31:59.839Z,44.97
2019-01-22T04:33:09.357Z,44.78
2019-01-22T04:34:18.502Z,44.87
2019-01-22T04:35:28.171Z,44.78
2019-01-22T04:36:37.487Z,44.97
2019-01-22T04:37:46.882Z,45.07
2019-01-22T04:38:56.394Z,44.97
2019-01-22T04:40:06.649Z,44.97
2019-01-22T04:41:16.652Z,45.07
2019-01-22T04:42:26.175Z,45.07
2019-01-22T04:43:35.735Z,44.97
2019-01-22T04:44:45.447Z,44.97
2019-01-22T04:45:54.570Z,44.97
2019-01-22T04:47:03.662Z,44.97
2019-01-22T04:48:12.742Z,45.07
2019-01-22T04:49:21.585Z,44.97
2019-01-22T04:50:30.817Z,44.97
2019-01-22T04:51:39.679Z,44.68
2019-01-22T04:52:48.824Z,44.97
2019-01-22T04:53:57.673Z,45.07
2019-01-22T04:55:14.135Z,45.07
2019-01-22T04:56:23.282Z,45.07
2019-01-22T04:57:32.127Z,45.16
2019-01-22T04:58:41.238Z,45.16
2019-01-22T04:59:50.353Z,45.07
2019-01-22T05:00:59.755Z,45.16
2019-01-22T05:02:09.567Z,45.07
2019-01-22T05:03:18.943Z,45.16
2019-01-22T05:04:28.342Z,45.07
2019-01-22T05:05:37.709Z,45.16
2019-01-22T05:06:46.578Z,45.07
2019-01-22T05:07:55.527Z,45.16
2019-01-22T05:09:04.615Z,44.59
2019-01-22T05:10:13.984Z,45.26
2019-01-22T05:11:23.609Z,45.07
2019-01-22T05:12:32.696Z,45.16
2019-01-22T05:13:41.864Z,44.59
2019-01-22T05:14:50.742Z,44.59
2019-01-22T05:15:59.910Z,44.59
2019-01-22T05:17:09.869Z,44.68
2019-01-22T05:18:18.707Z,44.59
2019-01-22T05:19:28.207Z,44.49
2019-01-22T05:20:37.351Z,44.87
2019-01-22T05:21:46.463Z,44.56
2019-01-22T05:22:55.864Z,44.49
2019-01-22T05:24:05.002Z,44.59
2019-01-22T05:25:20.621Z,44.87
2019-01-22T05:26:30.366Z,44.49
2019-01-22T05:27:40.420Z,44.68
2019-01-22T05:28:49.850Z,44.59
2019-01-22T05:29:59.529Z,44.59
2019-01-22T05:31:08.898Z,44.59
2019-01-22T05:32:18.027Z,44.56
2019-01-22T05:33:27.123Z,44.49
2019-01-22T05:34:36.274Z,44.3
2019-01-22T05:35:45.139Z,44.27
2019-01-22T05:36:54.042Z,44.68
2019-01-22T05:38:03.212Z,44.49
2019-01-22T05:39:12.327Z,44.66
2019-01-22T05:40:21.150Z,44.27
2019-01-22T05:41:29.994Z,44.3
2019-01-22T05:42:39.441Z,44.49
2019-01-22T05:43:48.308Z,44.3
2019-01-22T05:44:57.414Z,44.68
2019-01-22T05:46:06.566Z,44.3
2019-01-22T05:47:15.659Z,44.3
2019-01-22T05:48:24.886Z,44.56
2019-01-22T05:49:34.547Z,44.27
2019-01-22T05:50:43.908Z,44.4
2019-01-22T05:51:53.024Z,44.49
2019-01-22T05:53:02.377Z,44.4
2019-01-22T05:54:12.021Z,44.4
2019-01-22T05:55:27.488Z,44.66
2019-01-22T05:56:36.834Z,44.4
2019-01-22T05:57:45.944Z,44.47
2019-01-22T05:58:54.782Z,44.49
2019-01-22T06:00:03.687Z,44.49
2019-01-22T06:01:12.517Z,44.3
2019-01-22T06:02:21.343Z,44.27
2019-01-22T06:03:30.675Z,44.3
2019-01-22T06:04:39.743Z,44.3
2019-01-22T06:05:48.559Z,44.3
2019-01-22T06:06:57.390Z,44.49
2019-01-22T06:08:06.197Z,44.59
2019-01-22T06:09:15.272Z,45.07
2019-01-22T06:10:24.370Z,45.16
2019-01-22T06:11:33.188Z,45.26
2019-01-22T06:12:42.284Z,45.26
2019-01-22T06:13:51.118Z,45.07
2019-01-22T06:15:00.477Z,44.4
2019-01-22T06:16:09.603Z,45.07
2019-01-22T06:17:18.535Z,44.76
2019-01-22T06:18:27.862Z,44.68
2019-01-22T06:19:36.939Z,44.49
2019-01-22T06:20:45.766Z,44.56
2019-01-22T06:21:54.865Z,44.59
2019-01-22T06:23:04.000Z,44.59
2019-01-22T06:24:13.363Z,44.3
2019-01-22T06:25:22.747Z,44.68
2019-01-22T06:26:32.113Z,44.49
2019-01-22T06:27:41.241Z,44.49
2019-01-22T06:28:50.387Z,44.59
2019-01-22T06:29:59.488Z,44.68
2019-01-22T06:31:08.614Z,44.49
2019-01-22T06:32:17.444Z,44.66
2019-01-22T06:33:26.321Z,44.59
2019-01-22T06:34:35.515Z,44.68
2019-01-22T06:35:44.872Z,44.59
2019-01-22T06:36:53.982Z,44.68
2019-01-22T06:38:03.091Z,44.68
2019-01-22T06:39:12.550Z,44.49
2019-01-22T06:40:21.428Z,44.49
2019-01-22T06:41:30.779Z,44.47
2019-01-22T06:42:40.135Z,44.68
2019-01-22T06:43:49.238Z,44.59
2019-01-22T06:44:58.036Z,44.01
2019-01-22T06:46:07.027Z,44.49
2019-01-22T06:47:15.861Z,44.66
2019-01-22T06:48:24.711Z,44.49
2019-01-22T06:49:33.791Z,44.11
2019-01-22T06:50:42.885Z,44.18
2019-01-22T06:51:51.744Z,44.09
2019-01-22T06:53:00.816Z,44.27
2019-01-22T06:54:09.640Z,44.11
2019-01-22T06:55:18.764Z,44.2
2019-01-22T06:56:27.591Z,44.18
2019-01-22T06:57:36.397Z,44.09
2019-01-22T06:58:45.220Z,43.99
2019-01-22T06:59:54.313Z,44.11
2019-01-22T07:01:03.452Z,43.99
2019-01-22T07:02:12.514Z,44.09
2019-01-22T07:03:21.700Z,44.2
2019-01-22T07:04:30.794Z,44.09
2019-01-22T07:05:40.155Z,44.4
2019-01-22T07:06:49.505Z,44.3
2019-01-22T07:07:58.873Z,44.3
2019-01-22T07:09:08.309Z,44.27
2019-01-22T07:10:17.417Z,44.3
2019-01-22T07:11:26.489Z,44.27
2019-01-22T07:12:35.326Z,44.3
2019-01-22T07:13:44.142Z,44.09
2019-01-22T07:14:53.593Z,44.11
2019-01-22T07:16:02.936Z,44.49
2019-01-22T07:17:11.755Z,44.3
2019-01-22T07:18:20.813Z,44.18
2019-01-22T07:19:29.634Z,44.49
2019-01-22T07:20:38.707Z,44.3
2019-01-22T07:21:48.077Z,44.11
2019-01-22T07:22:57.162Z,44.2
2019-01-22T07:24:06.249Z,44.4
2019-01-22T07:25:15.349Z,44.4
2019-01-22T07:26:24.541Z,44.27
2019-01-22T07:27:33.621Z,44.18
2019-01-22T07:28:42.716Z,44.3
2019-01-22T07:29:51.555Z,44.4
2019-01-22T07:31:00.359Z,44.27
2019-01-22T07:32:12.860Z,44.4
2019-01-22T07:33:21.957Z,44.37
2019-01-22T07:34:31.068Z,44.3
2019-01-22T07:35:39.880Z,44.47
2019-01-22T07:36:49.223Z,44.37
2019-01-22T07:37:58.314Z,44.4
2019-01-22T07:39:07.683Z,44.18
2019-01-22T07:40:16.508Z,44.56
2019-01-22T07:41:25.320Z,44.37
2019-01-22T07:42:34.162Z,44.27
2019-01-22T07:43:43.115Z,44.37
2019-01-22T07:44:52.467Z,44.18
2019-01-22T07:46:01.303Z,44.27
2019-01-22T07:47:10.128Z,44.37
2019-01-22T07:48:18.935Z,44.37
2019-01-22T07:49:28.098Z,44.37
2019-01-22T07:50:37.175Z,44.47
2019-01-22T07:51:46.511Z,44.47
2019-01-22T07:52:55.354Z,44.56
2019-01-22T07:54:04.730Z,44.37
2019-01-22T07:55:13.669Z,44.27
2019-01-22T07:56:22.489Z,44.37
2019-01-22T07:57:31.585Z,44.27
2019-01-22T07:58:40.673Z,44.18
2019-01-22T07:59:49.761Z,44.18
2019-01-22T08:00:58.614Z,44.18
2019-01-22T08:02:08.250Z,44.27
2019-01-22T08:03:17.339Z,44.37
2019-01-22T08:04:26.148Z,44.37
2019-01-22T08:05:35.230Z,44.37
2019-01-22T08:06:44.108Z,44.37
2019-01-22T08:07:52.907Z,44.27
2019-01-22T08:09:01.719Z,44.2
2019-01-22T08:10:10.833Z,44.27
2019-01-22T08:11:19.647Z,44.37
2019-01-22T08:12:28.833Z,44.27
2019-01-22T08:13:37.648Z,44.27
2019-01-22T08:14:47.042Z,44.27
2019-01-22T08:15:56.114Z,44.27
2019-01-22T08:17:05.175Z,44.27
2019-01-22T08:18:14.365Z,44.27
2019-01-22T08:19:23.184Z,44.27
2019-01-22T08:20:31.996Z,44.18
2019-01-22T08:21:41.062Z,44.18
2019-01-22T08:22:50.419Z,43.99
2019-01-22T08:23:59.579Z,44.09
2019-01-22T08:25:08.676Z,44.47
2019-01-22T08:26:18.041Z,44.56
2019-01-22T08:27:29.470Z,44.66
2019-01-22T08:28:39.364Z,44.56
2019-01-22T08:29:48.274Z,44.95
2019-01-22T08:30:57.339Z,44.85
2019-01-22T08:32:06.693Z,45.26
2019-01-22T08:33:15.781Z,45.26
2019-01-22T08:34:24.681Z,45.81
2019-01-22T08:35:33.599Z,45.74
2019-01-22T08:36:42.678Z,46.12
2019-01-22T08:37:51.504Z,46.31
2019-01-22T08:39:00.308Z,46.79
2019-01-22T08:40:09.127Z,46.6
2019-01-22T08:41:17.945Z,46.79
2019-01-22T08:42:27.032Z,46.7
2019-01-22T08:43:35.847Z,46.98
2019-01-22T08:44:44.661Z,46.98
2019-01-22T08:45:53.495Z,46.89
2019-01-22T08:47:02.584Z,46.98
2019-01-22T08:48:11.663Z,47.27
2019-01-22T08:49:21.296Z,47.08
2019-01-22T08:50:30.379Z,46.89
2019-01-22T08:51:39.203Z,46.98
2019-01-22T08:52:48.672Z,46.89
2019-01-22T08:53:57.514Z,46.6
2019-01-22T08:55:10.622Z,46.5
2019-01-22T08:56:19.451Z,46.6
2019-01-22T08:57:28.529Z,46.7
2019-01-22T08:58:42.934Z,46.7
2019-01-22T08:59:51.843Z,46.79
2019-01-22T09:01:00.667Z,46.41
2019-01-22T09:02:10.252Z,46.6
2019-01-22T09:03:19.083Z,46.6
2019-01-22T09:04:28.288Z,46.41
2019-01-22T09:05:37.101Z,46.6
2019-01-22T09:06:45.932Z,46.79
2019-01-22T09:07:54.729Z,46.41
2019-01-22T09:09:03.864Z,46.6
2019-01-22T09:10:12.780Z,46.6
2019-01-22T09:11:22.086Z,46.41
2019-01-22T09:12:31.240Z,46.79
2019-01-22T09:13:40.337Z,46.79
2019-01-22T09:14:49.155Z,46.6
2019-01-22T09:15:58.042Z,46.89
2019-01-22T09:17:07.388Z,46.79
2019-01-22T09:18:16.756Z,46.6
2019-01-22T09:19:25.552Z,46.79
2019-01-22T09:20:34.681Z,46.7
2019-01-22T09:21:43.505Z,46.7
2019-01-22T09:22:52.580Z,46.31
2019-01-22T09:24:01.849Z,46.5
2019-01-22T09:25:16.952Z,46.41
2019-01-22T09:26:25.778Z,46.6
2019-01-22T09:27:34.968Z,46.6
2019-01-22T09:28:44.064Z,46.7
2019-01-22T09:29:52.913Z,46.5
2019-01-22T09:31:01.728Z,46.79
2019-01-22T09:32:11.123Z,46.79
2019-01-22T09:33:20.276Z,46.7
2019-01-22T09:34:29.093Z,46.6
2019-01-22T09:35:37.950Z,46.6
2019-01-22T09:36:47.039Z,46.7
2019-01-22T09:37:55.860Z,46.6
2019-01-22T09:39:04.710Z,46.7
2019-01-22T09:40:14.034Z,46.6
2019-01-22T09:41:27.117Z,46.6
2019-01-22T09:42:35.934Z,46.6
2019-01-22T09:43:44.808Z,46.79
2019-01-22T09:44:54.019Z,46.6
2019-01-22T09:46:02.851Z,46.7
2019-01-22T09:47:12.502Z,46.79
2019-01-22T09:48:21.390Z,46.5
2019-01-22T09:49:30.495Z,46.41
2019-01-22T09:50:40.117Z,46.79
2019-01-22T09:51:48.944Z,46.6
2019-01-22T09:52:58.033Z,46.5
2019-01-22T09:54:07.110Z,46.7
2019-01-22T09:55:22.284Z,46.7
2019-01-22T09:56:35.114Z,46.7
2019-01-22T09:57:44.218Z,46.79
2019-01-22T09:58:53.286Z,46.7
2019-01-22T10:00:02.384Z,46.7
2019-01-22T10:01:11.472Z,46.7
2019-01-22T10:02:20.335Z,46.7
2019-01-22T10:03:29.161Z,46.7
2019-01-22T10:04:38.513Z,46.7
2019-01-22T10:05:47.639Z,46.79
2019-01-22T10:06:56.993Z,46.79
2019-01-22T10:08:05.938Z,46.89
2019-01-22T10:09:14.824Z,46.7
2019-01-22T10:10:23.666Z,46.6
2019-01-22T10:11:32.524Z,46.79
2019-01-22T10:12:41.362Z,46.79
2019-01-22T10:13:50.971Z,46.7
2019-01-22T10:15:00.075Z,46.6
2019-01-22T10:16:09.140Z,46.7
2019-01-22T10:17:17.971Z,46.79
2019-01-22T10:18:26.790Z,46.7
2019-01-22T10:19:35.624Z,46.7
2019-01-22T10:20:44.437Z,46.41
2019-01-22T10:21:53.501Z,46.5
2019-01-22T10:23:03.088Z,46.6
2019-01-22T10:24:11.897Z,46.6
2019-01-22T10:25:20.985Z,46.7
2019-01-22T10:26:36.582Z,46.7
2019-01-22T10:27:45.672Z,46.6
2019-01-22T10:28:55.002Z,46.7
2019-01-22T10:30:04.342Z,46.5
2019-01-22T10:31:13.460Z,46.22
2019-01-22T10:32:22.831Z,46.79
2019-01-22T10:33:31.893Z,46.5
2019-01-22T10:34:41.267Z,47.17
2019-01-22T10:35:50.861Z,46.7
2019-01-22T10:37:00.029Z,46.7
2019-01-22T10:38:09.120Z,46.98
2019-01-22T10:39:20.039Z,47.08
2019-01-22T10:40:28.851Z,47.01
2019-01-22T10:41:37.940Z,46.91
2019-01-22T10:42:47.065Z,46.81
2019-01-22T10:43:56.148Z,47.49
2019-01-22T10:45:05.088Z,47.49
2019-01-22T10:46:14.305Z,47.1
2019-01-22T10:47:23.153Z,47.49
2019-01-22T10:48:32.719Z,47.77
2019-01-22T10:49:42.134Z,47.58
2019-01-22T10:50:51.210Z,47.97
2019-01-22T10:52:00.038Z,47.77
2019-01-22T10:53:08.931Z,47.49
2019-01-22T10:54:18.029Z,47.77
2019-01-22T10:55:27.116Z,47.58
2019-01-22T10:56:42.836Z,47.68
2019-01-22T10:57:51.631Z,47.68
2019-01-22T10:59:00.695Z,47.39
2019-01-22T11:00:10.101Z,47.49
2019-01-22T11:01:19.249Z,47.87
2019-01-22T11:02:28.325Z,47.77
2019-01-22T11:03:37.758Z,47.41
2019-01-22T11:04:46.675Z,47.3
2019-01-22T11:05:55.778Z,47.51
2019-01-22T11:07:05.143Z,47.01
2019-01-22T11:08:13.969Z,47.13
2019-01-22T11:09:23.592Z,47.13
2019-01-22T11:10:32.403Z,47.13
2019-01-22T11:11:41.713Z,47.1
2019-01-22T11:12:50.823Z,47.03
2019-01-22T11:14:00.169Z,46.81
2019-01-22T11:15:09.518Z,46.94
2019-01-22T11:16:18.347Z,46.65
2019-01-22T11:17:27.530Z,46.65
2019-01-22T11:18:36.393Z,46.65
2019-01-22T11:19:45.732Z,46.84
2019-01-22T11:20:54.586Z,46.94
2019-01-22T11:22:03.669Z,46.45
2019-01-22T11:23:13.111Z,46.65
2019-01-22T11:24:22.256Z,46.74
2019-01-22T11:25:43.267Z,46.65
2019-01-22T11:26:52.331Z,46.65
2019-01-22T11:28:01.411Z,46.17
2019-01-22T11:29:10.280Z,46.28
2019-01-22T11:30:19.380Z,46.67
2019-01-22T11:31:28.455Z,46.17
2019-01-22T11:32:37.284Z,46.19
2019-01-22T11:33:46.626Z,46.67
2019-01-22T11:34:55.705Z,46.58
2019-01-22T11:36:04.539Z,46.58
2019-01-22T11:37:13.354Z,46.38
2019-01-22T11:38:22.434Z,46.86
2019-01-22T11:39:31.518Z,46.77
2019-01-22T11:40:40.707Z,46.12
2019-01-22T11:41:49.781Z,46.38
2019-01-22T11:42:58.598Z,46.38
2019-01-22T11:44:07.686Z,46.31
2019-01-22T11:45:16.501Z,46.21
2019-01-22T11:46:25.619Z,46.02
2019-01-22T11:47:34.970Z,45.54
2019-01-22T11:48:44.095Z,45.83
2019-01-22T11:49:52.916Z,45.64
2019-01-22T11:51:01.754Z,45.54
2019-01-22T11:52:10.619Z,45.06
2019-01-22T11:53:19.438Z,45.06
2019-01-22T11:54:28.274Z,45.06
2019-01-22T11:55:37.127Z,44.96
2019-01-22T11:56:52.856Z,44.87
2019-01-22T11:58:01.732Z,45.28
2019-01-22T11:59:10.582Z,44.6
2019-01-22T12:00:19.388Z,44.7
2019-01-22T12:01:28.506Z,44.14
2019-01-22T12:02:37.325Z,44.34
2019-01-22T12:03:46.192Z,44.43
2019-01-22T12:04:55.005Z,44.43
2019-01-22T12:06:03.813Z,44.43
2019-01-22T12:07:12.620Z,44.34
2019-01-22T12:08:21.982Z,44.43
2019-01-22T12:09:31.455Z,44.82
2019-01-22T12:10:40.278Z,44.7
2019-01-22T12:11:49.079Z,45.28
2019-01-22T12:12:58.152Z,44.99
2019-01-22T12:14:07.005Z,45.08
2019-01-22T12:15:15.915Z,45.28
2019-01-22T12:16:25.014Z,45.76
2019-01-22T12:17:33.868Z,45.73
2019-01-22T12:18:42.680Z,45.73
2019-01-22T12:19:51.805Z,46.02
2019-01-22T12:21:03.983Z,45.92
2019-01-22T12:22:13.350Z,46.02
2019-01-22T12:23:22.165Z,46.31
2019-01-22T12:24:31.253Z,46.12
2019-01-22T12:25:40.372Z,46.59
2019-01-22T12:26:49.546Z,46.67
2019-01-22T12:27:58.379Z,46.38
2019-01-22T12:29:07.191Z,46.67
2019-01-22T12:30:16.544Z,46.19
2019-01-22T12:31:25.397Z,46.96
2019-01-22T12:32:34.744Z,46.86
2019-01-22T12:33:44.093Z,46.86
2019-01-22T12:34:52.893Z,46.67
2019-01-22T12:36:01.996Z,46.77
2019-01-22T12:37:10.829Z,46.86
2019-01-22T12:38:19.737Z,46.58
2019-01-22T12:39:28.545Z,46.67
2019-01-22T12:40:37.913Z,46.67
2019-01-22T12:41:47.261Z,46.86
2019-01-22T12:42:56.093Z,46.55
2019-01-22T12:44:07.053Z,46.67
2019-01-22T12:45:16.138Z,46.28
2019-01-22T12:46:24.977Z,46.67
2019-01-22T12:47:33.805Z,46.77
2019-01-22T12:48:42.610Z,46.38
2019-01-22T12:49:51.687Z,46.65
2019-01-22T12:51:00.795Z,46.58
2019-01-22T12:52:10.131Z,46.96
2019-01-22T12:53:19.217Z,46.94
2019-01-22T12:54:28.817Z,46.77
2019-01-22T12:55:37.726Z,46.58
2019-01-22T12:56:47.364Z,46.74
2019-01-22T12:57:56.190Z,46.65
2019-01-22T12:59:05.005Z,46.65
2019-01-22T13:00:13.828Z,46.84
2019-01-22T13:01:23.270Z,47.13
2019-01-22T13:02:32.863Z,47.03
2019-01-22T13:03:41.694Z,47.03
2019-01-22T13:04:51.053Z,47.22
2019-01-22T13:06:01.137Z,47.13
2019-01-22T13:07:10.301Z,46.94
2019-01-22T13:08:19.379Z,47.03
2019-01-22T13:09:28.183Z,46.55
2019-01-22T13:10:37.002Z,46.74
2019-01-22T13:11:45.827Z,46.45
2019-01-22T13:12:55.191Z,46.94
2019-01-22T13:14:04.532Z,46.94
2019-01-22T13:15:19.014Z,46.65
2019-01-22T13:16:27.852Z,46.94
2019-01-22T13:17:37.200Z,46.65
2019-01-22T13:18:46.411Z,46.55
2019-01-22T13:19:55.503Z,47.03
2019-01-22T13:21:04.882Z,46.55
2019-01-22T13:22:14.240Z,46.65
2019-01-22T13:23:23.324Z,46.55
2019-01-22T13:24:32.260Z,46.94
2019-01-22T13:25:41.331Z,46.65
2019-01-22T13:26:50.156Z,46.55
2019-01-22T13:27:58.977Z,47.03
2019-01-22T13:29:08.089Z,46.55
2019-01-22T13:30:17.522Z,46.94
2019-01-22T13:31:27.250Z,46.65
2019-01-22T13:32:36.598Z,46.55
2019-01-22T13:33:45.420Z,46.55
2019-01-22T13:34:54.776Z,46.65
2019-01-22T13:36:04.245Z,47.03
2019-01-22T13:37:13.075Z,46.65
2019-01-22T13:38:21.903Z,46.65
2019-01-22T13:39:30.723Z,46.74
2019-01-22T13:40:39.534Z,46.55
2019-01-22T13:41:48.673Z,46.74
2019-01-22T13:42:57.773Z,46.94
2019-01-22T13:44:06.876Z,46.94
2019-01-22T13:45:15.725Z,46.94
2019-01-22T13:46:25.100Z,47.03
2019-01-22T13:47:33.933Z,47.03
2019-01-22T13:48:42.745Z,47.03
2019-01-22T13:49:52.108Z,46.84
2019-01-22T13:51:01.239Z,47.13
2019-01-22T13:52:10.326Z,47.03
2019-01-22T13:53:19.551Z,46.94
2019-01-22T13:54:28.364Z,47.13
2019-01-22T13:55:37.726Z,47.03
2019-01-22T13:56:46.547Z,47.03
2019-01-22T13:57:55.909Z,47.03
2019-01-22T13:59:04.988Z,47.03
2019-01-22T14:00:14.335Z,46.74
2019-01-22T14:01:23.162Z,46.94
2019-01-22T14:02:32.235Z,46.94
2019-01-22T14:03:41.068Z,47.03
2019-01-22T14:04:50.259Z,46.84
2019-01-22T14:05:59.339Z,47.03
2019-01-22T14:07:08.431Z,47.03
2019-01-22T14:08:18.042Z,47.03
2019-01-22T14:09:26.879Z,47.03
2019-01-22T14:10:36.078Z,47.22
2019-01-22T14:11:45.431Z,47.13
2019-01-22T14:12:54.517Z,47.13
2019-01-22T14:14:04.158Z,47.22
2019-01-22T14:15:12.989Z,47.13
2019-01-22T14:16:21.868Z,47.22
2019-01-22T14:17:30.978Z,47.13
2019-01-22T14:18:41.156Z,47.22
2019-01-22T14:19:50.239Z,47.13
2019-01-22T14:20:59.335Z,47.13
2019-01-22T14:22:08.171Z,47.13
2019-01-22T14:23:17.231Z,47.22
2019-01-22T14:24:26.855Z,47.03
2019-01-22T14:25:35.949Z,47.03
2019-01-22T14:26:45.035Z,47.03
2019-01-22T14:27:54.494Z,47.13
2019-01-22T14:29:03.331Z,47.22
2019-01-22T14:30:12.143Z,47.03
2019-01-22T14:31:21.528Z,47.03
2019-01-22T14:32:34.728Z,47.03
2019-01-22T14:33:43.608Z,47.22
2019-01-22T14:34:52.699Z,46.74
2019-01-22T14:36:01.563Z,47.03
2019-01-22T14:37:10.394Z,47.13
2019-01-22T14:38:19.474Z,47.03
2019-01-22T14:39:29.008Z,47.13
2019-01-22T14:40:38.111Z,47.13
2019-01-22T14:41:47.197Z,47.13
2019-01-22T14:42:56.280Z,47.03
2019-01-22T14:44:05.099Z,47.22
2019-01-22T14:45:13.961Z,46.84
2019-01-22T14:46:23.315Z,46.55
2019-01-22T14:47:32.163Z,46.84
2019-01-22T14:48:41.506Z,46.65
2019-01-22T14:49:50.325Z,46.55
2019-01-22T14:51:00.363Z,46.65
2019-01-22T14:52:09.252Z,46.84
2019-01-22T14:53:18.393Z,46.84
2019-01-22T14:54:27.465Z,47.03
2019-01-22T14:55:36.283Z,46.94
2019-01-22T14:56:45.207Z,46.84
2019-01-22T14:57:54.033Z,46.65
2019-01-22T14:59:03.683Z,46.74
2019-01-22T15:00:12.762Z,46.65